sensor_id;sensor_type;location;lat;lon;timestamp;temperature;humidity
2955;DHT22;1487;51.470;6.938;2023-05-10T00:01:22;13.40;99.90
2955;DHT22;1487;51.470;6.938;2023-05-10T00:03:49;13.40;99.90
2955;DHT22;1487;51.470;6.938;2023-05-10T00:06:16;13.40;99.90
2955;DHT22;1487;51.470;6.938;2023-05-10T00:08:44;13.40;99.90
2955;DHT22;1487;51.470;6.938;2023-05-10T00:11:11;13.40;99.90
2955;DHT22;1487;51.470;6.938;2023-05-10T00:13:40;13.40;99.90
2955;DHT22;1487;51.470;6.938;2023-05-10T00:16:06;13.40;99.90
2955;DHT22;1487;51.470;6.938;2023-05-10T00:18:33;13.40;99.90
2955;DHT22;1487;51.470;6.938;2023-05-10T00:21:00;13.40;99.90
2955;DHT22;1487;51.470;6.938;2023-05-10T00:23:27;13.40;99.90
2955;DHT22;1487;51.470;6.938;2023-05-10T00:25:54;13.40;99.90
2955;DHT22;1487;51.470;6.938;2023-05-10T00:28:20;13.40;99.90
2955;DHT22;1487;51.470;6.938;2023-05-10T00:30:49;13.40;99.90
2955;DHT22;1487;51.470;6.938;2023-05-10T00:33:15;13.40;99.90
2955;DHT22;1487;51.470;6.938;2023-05-10T00:35:42;13.40;99.90
2955;DHT22;1487;51.470;6.938;2023-05-10T00:38:09;13.50;99.90
2955;DHT22;1487;51.470;6.938;2023-05-10T00:40:36;13.40;99.90
2955;DHT22;1487;51.470;6.938;2023-05-10T00:43:03;13.40;99.90
2955;DHT22;1487;51.470;6.938;2023-05-10T00:45:30;13.40;99.90
2955;DHT22;1487;51.470;6.938;2023-05-10T00:47:59;13.30;99.90
2955;DHT22;1487;51.470;6.938;2023-05-10T00:50:28;13.30;99.90
2955;DHT22;1487;51.470;6.938;2023-05-10T00:52:55;13.20;99.90
2955;DHT22;1487;51.470;6.938;2023-05-10T00:55:22;13.20;99.90
2955;DHT22;1487;51.470;6.938;2023-05-10T00:57:49;13.10;99.90
2955;DHT22;1487;51.470;6.938;2023-05-10T01:00:16;13.10;99.90
2955;DHT22;1487;51.470;6.938;2023-05-10T01:02:44;13.10;99.90
2955;DHT22;1487;51.470;6.938;2023-05-10T01:05:13;13.00;99.90
2955;DHT22;1487;51.470;6.938;2023-05-10T01:07:40;13.00;99.90
2955;DHT22;1487;51.470;6.938;2023-05-10T01:10:07;13.00;99.90
2955;DHT22;1487;51.470;6.938;2023-05-10T01:12:37;13.00;99.90
2955;DHT22;1487;51.470;6.938;2023-05-10T01:15:06;13.00;99.90
2955;DHT22;1487;51.470;6.938;2023-05-10T01:17:35;13.00;99.90
2955;DHT22;1487;51.470;6.938;2023-05-10T01:20:02;13.00;99.90
2955;DHT22;1487;51.470;6.938;2023-05-10T01:22:49;13.00;99.90
2955;DHT22;1487;51.470;6.938;2023-05-10T01:25:46;13.00;99.90
2955;DHT22;1487;51.470;6.938;2023-05-10T01:28:33;13.00;99.90
2955;DHT22;1487;51.470;6.938;2023-05-10T01:31:22;13.00;99.90
2955;DHT22;1487;51.470;6.938;2023-05-10T01:33:55;13.00;99.90
2955;DHT22;1487;51.470;6.938;2023-05-10T01:36:29;13.00;99.90
2955;DHT22;1487;51.470;6.938;2023-05-10T01:39:01;13.00;99.90
2955;DHT22;1487;51.470;6.938;2023-05-10T01:41:36;13.00;99.90
2955;DHT22;1487;51.470;6.938;2023-05-10T01:44:10;12.90;99.90
2955;DHT22;1487;51.470;6.938;2023-05-10T01:46:39;12.90;99.90
2955;DHT22;1487;51.470;6.938;2023-05-10T01:49:10;12.90;99.90
2955;DHT22;1487;51.470;6.938;2023-05-10T01:51:41;12.90;99.90
2955;DHT22;1487;51.470;6.938;2023-05-10T01:54:08;12.90;99.90
2955;DHT22;1487;51.470;6.938;2023-05-10T01:56:38;12.90;99.90
2955;DHT22;1487;51.470;6.938;2023-05-10T01:59:08;12.90;99.90
2955;DHT22;1487;51.470;6.938;2023-05-10T02:01:38;12.90;99.90
2955;DHT22;1487;51.470;6.938;2023-05-10T02:04:07;12.80;99.90
2955;DHT22;1487;51.470;6.938;2023-05-10T02:06:36;12.80;99.90
2955;DHT22;1487;51.470;6.938;2023-05-10T02:09:05;12.80;99.90
2955;DHT22;1487;51.470;6.938;2023-05-10T02:11:33;12.80;99.90
2955;DHT22;1487;51.470;6.938;2023-05-10T02:14:00;12.80;99.90
2955;DHT22;1487;51.470;6.938;2023-05-10T02:16:28;12.80;99.90
2955;DHT22;1487;51.470;6.938;2023-05-10T02:18:57;12.80;99.90
2955;DHT22;1487;51.470;6.938;2023-05-10T02:21:28;12.90;99.90
2955;DHT22;1487;51.470;6.938;2023-05-10T02:23:57;12.80;99.90
2955;DHT22;1487;51.470;6.938;2023-05-10T02:26:24;12.80;99.90
2955;DHT22;1487;51.470;6.938;2023-05-10T02:28:53;12.80;99.90
2955;DHT22;1487;51.470;6.938;2023-05-10T02:31:21;12.70;99.90
2955;DHT22;1487;51.470;6.938;2023-05-10T02:33:49;12.70;99.90
2955;DHT22;1487;51.470;6.938;2023-05-10T02:36:18;12.70;99.90
2955;DHT22;1487;51.470;6.938;2023-05-10T02:38:47;12.70;99.90
2955;DHT22;1487;51.470;6.938;2023-05-10T02:41:15;12.70;99.90
2955;DHT22;1487;51.470;6.938;2023-05-10T02:43:43;12.70;99.90
2955;DHT22;1487;51.470;6.938;2023-05-10T02:46:11;12.70;99.90
2955;DHT22;1487;51.470;6.938;2023-05-10T02:48:37;12.70;99.90
2955;DHT22;1487;51.470;6.938;2023-05-10T02:51:07;12.70;99.90
2955;DHT22;1487;51.470;6.938;2023-05-10T02:53:36;12.80;99.90
2955;DHT22;1487;51.470;6.938;2023-05-10T02:56:12;12.80;99.90
2955;DHT22;1487;51.470;6.938;2023-05-10T02:58:40;12.80;99.90
2955;DHT22;1487;51.470;6.938;2023-05-10T03:01:07;12.80;99.90
2955;DHT22;1487;51.470;6.938;2023-05-10T03:03:34;12.80;99.90
2955;DHT22;1487;51.470;6.938;2023-05-10T03:06:01;12.80;99.90
2955;DHT22;1487;51.470;6.938;2023-05-10T03:08:28;12.70;99.90
2955;DHT22;1487;51.470;6.938;2023-05-10T03:11:03;12.70;99.90
2955;DHT22;1487;51.470;6.938;2023-05-10T03:13:39;12.70;99.90
2955;DHT22;1487;51.470;6.938;2023-05-10T03:16:14;12.70;99.90
2955;DHT22;1487;51.470;6.938;2023-05-10T03:18:43;12.70;99.90
2955;DHT22;1487;51.470;6.938;2023-05-10T03:21:11;12.70;99.90
2955;DHT22;1487;51.470;6.938;2023-05-10T03:23:43;12.70;99.90
2955;DHT22;1487;51.470;6.938;2023-05-10T03:26:17;12.70;99.90
2955;DHT22;1487;51.470;6.938;2023-05-10T03:28:48;12.70;99.90
2955;DHT22;1487;51.470;6.938;2023-05-10T03:31:17;12.80;99.90
2955;DHT22;1487;51.470;6.938;2023-05-10T03:33:47;12.80;99.90
2955;DHT22;1487;51.470;6.938;2023-05-10T03:36:14;12.80;99.90
2955;DHT22;1487;51.470;6.938;2023-05-10T03:38:41;12.70;99.90
2955;DHT22;1487;51.470;6.938;2023-05-10T03:41:08;12.70;99.90
2955;DHT22;1487;51.470;6.938;2023-05-10T03:43:35;12.80;99.90
2955;DHT22;1487;51.470;6.938;2023-05-10T03:46:03;12.80;99.90
2955;DHT22;1487;51.470;6.938;2023-05-10T03:48:30;12.80;99.90
2955;DHT22;1487;51.470;6.938;2023-05-10T03:50:58;12.80;99.90
2955;DHT22;1487;51.470;6.938;2023-05-10T03:53:24;12.80;99.90
2955;DHT22;1487;51.470;6.938;2023-05-10T03:55:52;12.80;99.90
2955;DHT22;1487;51.470;6.938;2023-05-10T03:58:19;12.80;99.90
2955;DHT22;1487;51.470;6.938;2023-05-10T04:00:46;12.80;99.90
2955;DHT22;1487;51.470;6.938;2023-05-10T04:03:14;12.90;99.90
2955;DHT22;1487;51.470;6.938;2023-05-10T04:05:41;12.80;99.90
2955;DHT22;1487;51.470;6.938;2023-05-10T04:08:08;12.90;99.90
2955;DHT22;1487;51.470;6.938;2023-05-10T04:10:35;12.90;99.90
2955;DHT22;1487;51.470;6.938;2023-05-10T04:13:02;12.90;99.90
2955;DHT22;1487;51.470;6.938;2023-05-10T04:15:28;12.90;99.90
2955;DHT22;1487;51.470;6.938;2023-05-10T04:17:55;12.90;99.90
2955;DHT22;1487;51.470;6.938;2023-05-10T04:20:23;13.00;99.90
2955;DHT22;1487;51.470;6.938;2023-05-10T04:22:50;12.90;99.90
2955;DHT22;1487;51.470;6.938;2023-05-10T04:25:17;12.90;99.90
2955;DHT22;1487;51.470;6.938;2023-05-10T04:27:44;13.00;99.90
2955;DHT22;1487;51.470;6.938;2023-05-10T04:30:11;13.00;99.90
2955;DHT22;1487;51.470;6.938;2023-05-10T04:32:38;13.00;99.90
2955;DHT22;1487;51.470;6.938;2023-05-10T04:35:05;13.00;99.90
2955;DHT22;1487;51.470;6.938;2023-05-10T04:37:34;13.00;99.90
2955;DHT22;1487;51.470;6.938;2023-05-10T04:40:01;13.00;99.90
2955;DHT22;1487;51.470;6.938;2023-05-10T04:42:28;13.00;99.90
2955;DHT22;1487;51.470;6.938;2023-05-10T04:44:55;13.10;99.90
2955;DHT22;1487;51.470;6.938;2023-05-10T04:47:22;13.10;99.90
2955;DHT22;1487;51.470;6.938;2023-05-10T04:49:49;13.10;99.90
2955;DHT22;1487;51.470;6.938;2023-05-10T04:52:16;13.10;99.90
2955;DHT22;1487;51.470;6.938;2023-05-10T04:54:44;13.10;99.90
2955;DHT22;1487;51.470;6.938;2023-05-10T04:57:11;13.10;99.90
2955;DHT22;1487;51.470;6.938;2023-05-10T04:59:38;13.10;99.90
2955;DHT22;1487;51.470;6.938;2023-05-10T05:02:05;13.20;99.90
2955;DHT22;1487;51.470;6.938;2023-05-10T05:04:32;13.20;99.90
2955;DHT22;1487;51.470;6.938;2023-05-10T05:06:59;13.20;99.90
2955;DHT22;1487;51.470;6.938;2023-05-10T05:09:25;13.20;99.90
2955;DHT22;1487;51.470;6.938;2023-05-10T05:11:53;13.30;99.90
2955;DHT22;1487;51.470;6.938;2023-05-10T05:14:20;13.30;99.90
2955;DHT22;1487;51.470;6.938;2023-05-10T05:16:47;13.20;99.90
2955;DHT22;1487;51.470;6.938;2023-05-10T05:19:14;13.30;99.90
2955;DHT22;1487;51.470;6.938;2023-05-10T05:21:41;13.30;99.90
2955;DHT22;1487;51.470;6.938;2023-05-10T05:24:08;13.30;99.90
2955;DHT22;1487;51.470;6.938;2023-05-10T05:26:36;13.30;99.90
2955;DHT22;1487;51.470;6.938;2023-05-10T05:29:04;13.40;99.90
2955;DHT22;1487;51.470;6.938;2023-05-10T05:31:31;13.40;99.90
2955;DHT22;1487;51.470;6.938;2023-05-10T05:33:58;13.40;99.90
2955;DHT22;1487;51.470;6.938;2023-05-10T05:36:25;13.40;99.90
2955;DHT22;1487;51.470;6.938;2023-05-10T05:38:52;13.50;99.90
2955;DHT22;1487;51.470;6.938;2023-05-10T05:41:19;13.50;99.90
2955;DHT22;1487;51.470;6.938;2023-05-10T05:43:47;13.50;99.90
2955;DHT22;1487;51.470;6.938;2023-05-10T05:46:15;13.60;99.90
2955;DHT22;1487;51.470;6.938;2023-05-10T05:48:42;13.60;99.90
2955;DHT22;1487;51.470;6.938;2023-05-10T05:51:08;13.50;99.90
2955;DHT22;1487;51.470;6.938;2023-05-10T05:53:36;13.50;99.90
2955;DHT22;1487;51.470;6.938;2023-05-10T05:56:03;13.60;99.90
2955;DHT22;1487;51.470;6.938;2023-05-10T05:58:30;13.70;99.90
2955;DHT22;1487;51.470;6.938;2023-05-10T06:00:57;13.70;99.90
2955;DHT22;1487;51.470;6.938;2023-05-10T06:03:25;13.80;99.90
2955;DHT22;1487;51.470;6.938;2023-05-10T06:05:52;13.80;99.90
2955;DHT22;1487;51.470;6.938;2023-05-10T06:08:19;13.80;99.90
2955;DHT22;1487;51.470;6.938;2023-05-10T06:10:46;13.80;99.90
2955;DHT22;1487;51.470;6.938;2023-05-10T06:13:13;13.90;99.90
2955;DHT22;1487;51.470;6.938;2023-05-10T06:15:40;13.90;99.90
2955;DHT22;1487;51.470;6.938;2023-05-10T06:18:06;13.80;99.90
2955;DHT22;1487;51.470;6.938;2023-05-10T06:20:35;13.80;99.90
2955;DHT22;1487;51.470;6.938;2023-05-10T06:23:01;13.80;99.90
2955;DHT22;1487;51.470;6.938;2023-05-10T06:25:28;13.90;99.90
2955;DHT22;1487;51.470;6.938;2023-05-10T06:27:55;13.90;99.90
2955;DHT22;1487;51.470;6.938;2023-05-10T06:30:24;14.00;99.90
2955;DHT22;1487;51.470;6.938;2023-05-10T06:32:53;14.00;99.90
2955;DHT22;1487;51.470;6.938;2023-05-10T06:35:21;14.10;99.90
2955;DHT22;1487;51.470;6.938;2023-05-10T06:37:49;14.20;99.90
2955;DHT22;1487;51.470;6.938;2023-05-10T06:40:17;14.30;99.90
2955;DHT22;1487;51.470;6.938;2023-05-10T06:42:44;14.40;99.90
2955;DHT22;1487;51.470;6.938;2023-05-10T06:45:12;14.60;99.90
2955;DHT22;1487;51.470;6.938;2023-05-10T06:47:39;14.60;99.90
2955;DHT22;1487;51.470;6.938;2023-05-10T06:50:06;14.60;99.90
2955;DHT22;1487;51.470;6.938;2023-05-10T06:52:33;14.50;99.90
2955;DHT22;1487;51.470;6.938;2023-05-10T06:55:02;14.60;99.90
2955;DHT22;1487;51.470;6.938;2023-05-10T06:57:29;14.90;99.90
2955;DHT22;1487;51.470;6.938;2023-05-10T06:59:57;15.00;99.90
2955;DHT22;1487;51.470;6.938;2023-05-10T07:02:23;15.20;99.90
2955;DHT22;1487;51.470;6.938;2023-05-10T07:04:50;15.30;99.90
2955;DHT22;1487;51.470;6.938;2023-05-10T07:07:17;15.30;99.90
2955;DHT22;1487;51.470;6.938;2023-05-10T07:09:45;15.30;99.90
2955;DHT22;1487;51.470;6.938;2023-05-10T07:12:13;15.40;99.90
2955;DHT22;1487;51.470;6.938;2023-05-10T07:14:40;15.30;99.90
2955;DHT22;1487;51.470;6.938;2023-05-10T07:17:06;15.20;99.90
2955;DHT22;1487;51.470;6.938;2023-05-10T07:19:33;15.30;99.90
2955;DHT22;1487;51.470;6.938;2023-05-10T07:22:00;15.40;99.90
2955;DHT22;1487;51.470;6.938;2023-05-10T07:24:27;15.40;99.90
2955;DHT22;1487;51.470;6.938;2023-05-10T07:26:54;15.60;99.90
2955;DHT22;1487;51.470;6.938;2023-05-10T07:29:22;15.70;99.90
2955;DHT22;1487;51.470;6.938;2023-05-10T07:31:49;15.70;99.90
2955;DHT22;1487;51.470;6.938;2023-05-10T07:34:16;15.50;99.90
2955;DHT22;1487;51.470;6.938;2023-05-10T07:36:43;15.50;99.90
2955;DHT22;1487;51.470;6.938;2023-05-10T07:39:09;15.40;99.90
2955;DHT22;1487;51.470;6.938;2023-05-10T07:41:36;15.30;99.90
2955;DHT22;1487;51.470;6.938;2023-05-10T07:44:04;15.30;99.90
2955;DHT22;1487;51.470;6.938;2023-05-10T07:46:32;15.30;99.90
2955;DHT22;1487;51.470;6.938;2023-05-10T07:48:59;15.30;99.90
2955;DHT22;1487;51.470;6.938;2023-05-10T07:51:26;15.40;99.90
2955;DHT22;1487;51.470;6.938;2023-05-10T07:53:53;15.50;99.90
2955;DHT22;1487;51.470;6.938;2023-05-10T07:56:21;15.60;99.90
2955;DHT22;1487;51.470;6.938;2023-05-10T07:58:48;15.60;99.90
2955;DHT22;1487;51.470;6.938;2023-05-10T08:01:15;15.60;99.90
2955;DHT22;1487;51.470;6.938;2023-05-10T08:03:43;15.50;99.90
2955;DHT22;1487;51.470;6.938;2023-05-10T08:06:10;15.30;99.90
2955;DHT22;1487;51.470;6.938;2023-05-10T08:08:37;15.20;99.90
2955;DHT22;1487;51.470;6.938;2023-05-10T08:11:04;15.20;99.90
2955;DHT22;1487;51.470;6.938;2023-05-10T08:13:31;15.20;99.90
2955;DHT22;1487;51.470;6.938;2023-05-10T08:15:58;15.10;99.90
2955;DHT22;1487;51.470;6.938;2023-05-10T08:18:25;15.20;99.90
2955;DHT22;1487;51.470;6.938;2023-05-10T08:20:53;15.30;99.90
2955;DHT22;1487;51.470;6.938;2023-05-10T08:23:20;15.40;99.90
2955;DHT22;1487;51.470;6.938;2023-05-10T08:25:47;15.50;99.90
2955;DHT22;1487;51.470;6.938;2023-05-10T08:28:13;15.60;99.90
2955;DHT22;1487;51.470;6.938;2023-05-10T08:30:40;15.80;99.90
2955;DHT22;1487;51.470;6.938;2023-05-10T08:33:07;16.20;99.90
2955;DHT22;1487;51.470;6.938;2023-05-10T08:35:34;16.80;99.90
2955;DHT22;1487;51.470;6.938;2023-05-10T08:38:02;16.90;99.90
2955;DHT22;1487;51.470;6.938;2023-05-10T08:40:29;16.80;99.90
2955;DHT22;1487;51.470;6.938;2023-05-10T08:42:59;16.70;99.90
2955;DHT22;1487;51.470;6.938;2023-05-10T08:45:32;16.40;99.90
2955;DHT22;1487;51.470;6.938;2023-05-10T08:48:01;16.10;99.90
2955;DHT22;1487;51.470;6.938;2023-05-10T08:50:29;16.10;99.90
2955;DHT22;1487;51.470;6.938;2023-05-10T08:52:59;16.30;99.90
2955;DHT22;1487;51.470;6.938;2023-05-10T08:55:28;17.10;99.90
2955;DHT22;1487;51.470;6.938;2023-05-10T08:57:55;17.70;99.90
2955;DHT22;1487;51.470;6.938;2023-05-10T09:00:22;17.90;99.90
2955;DHT22;1487;51.470;6.938;2023-05-10T09:02:50;18.20;99.90
2955;DHT22;1487;51.470;6.938;2023-05-10T09:05:17;18.20;99.90
2955;DHT22;1487;51.470;6.938;2023-05-10T09:07:44;18.30;99.90
2955;DHT22;1487;51.470;6.938;2023-05-10T09:10:11;17.90;99.90
2955;DHT22;1487;51.470;6.938;2023-05-10T09:12:41;17.30;99.90
2955;DHT22;1487;51.470;6.938;2023-05-10T09:15:10;17.00;99.90
2955;DHT22;1487;51.470;6.938;2023-05-10T09:17:37;16.90;99.90
2955;DHT22;1487;51.470;6.938;2023-05-10T09:20:06;16.80;99.90
2955;DHT22;1487;51.470;6.938;2023-05-10T09:22:34;16.80;99.90
2955;DHT22;1487;51.470;6.938;2023-05-10T09:25:06;17.10;99.90
2955;DHT22;1487;51.470;6.938;2023-05-10T09:27:33;17.20;99.90
2955;DHT22;1487;51.470;6.938;2023-05-10T09:30:02;17.60;99.90
2955;DHT22;1487;51.470;6.938;2023-05-10T09:32:39;17.50;99.90
2955;DHT22;1487;51.470;6.938;2023-05-10T09:35:08;17.10;99.90
2955;DHT22;1487;51.470;6.938;2023-05-10T09:37:35;16.60;99.90
2955;DHT22;1487;51.470;6.938;2023-05-10T09:40:05;16.30;99.90
2955;DHT22;1487;51.470;6.938;2023-05-10T09:42:33;16.20;99.90
2955;DHT22;1487;51.470;6.938;2023-05-10T09:45:03;16.30;99.90
2955;DHT22;1487;51.470;6.938;2023-05-10T09:47:32;16.50;99.90
2955;DHT22;1487;51.470;6.938;2023-05-10T09:50:00;16.70;99.90
2955;DHT22;1487;51.470;6.938;2023-05-10T09:52:30;16.80;99.90
2955;DHT22;1487;51.470;6.938;2023-05-10T09:54:57;16.70;99.90
2955;DHT22;1487;51.470;6.938;2023-05-10T09:57:24;16.90;99.90
2955;DHT22;1487;51.470;6.938;2023-05-10T09:59:52;17.00;99.90
2955;DHT22;1487;51.470;6.938;2023-05-10T10:02:21;17.00;99.90
2955;DHT22;1487;51.470;6.938;2023-05-10T10:04:54;16.80;99.90
2955;DHT22;1487;51.470;6.938;2023-05-10T10:07:22;16.90;99.90
2955;DHT22;1487;51.470;6.938;2023-05-10T10:09:51;17.10;99.90
2955;DHT22;1487;51.470;6.938;2023-05-10T10:12:18;17.10;99.90
2955;DHT22;1487;51.470;6.938;2023-05-10T10:14:46;16.90;99.90
2955;DHT22;1487;51.470;6.938;2023-05-10T10:17:15;16.80;99.90
2955;DHT22;1487;51.470;6.938;2023-05-10T10:19:43;17.00;99.90
2955;DHT22;1487;51.470;6.938;2023-05-10T10:22:11;16.90;99.90
2955;DHT22;1487;51.470;6.938;2023-05-10T10:24:38;16.70;99.90
2955;DHT22;1487;51.470;6.938;2023-05-10T10:27:19;16.60;99.90
2955;DHT22;1487;51.470;6.938;2023-05-10T10:29:59;16.60;99.90
2955;DHT22;1487;51.470;6.938;2023-05-10T10:32:35;16.60;99.90
2955;DHT22;1487;51.470;6.938;2023-05-10T10:35:06;16.70;99.90
2955;DHT22;1487;51.470;6.938;2023-05-10T10:37:44;16.60;99.90
2955;DHT22;1487;51.470;6.938;2023-05-10T10:40:28;16.70;99.90
2955;DHT22;1487;51.470;6.938;2023-05-10T10:42:56;16.70;99.90
2955;DHT22;1487;51.470;6.938;2023-05-10T10:45:24;16.70;99.90
2955;DHT22;1487;51.470;6.938;2023-05-10T10:50:44;16.40;99.90
2955;DHT22;1487;51.470;6.938;2023-05-10T10:53:12;16.40;99.90
2955;DHT22;1487;51.470;6.938;2023-05-10T10:55:46;16.50;99.90
2955;DHT22;1487;51.470;6.938;2023-05-10T10:58:29;16.40;99.90
2955;DHT22;1487;51.470;6.938;2023-05-10T11:01:10;16.30;99.90
2955;DHT22;1487;51.470;6.938;2023-05-10T11:03:37;16.40;99.90
2955;DHT22;1487;51.470;6.938;2023-05-10T11:06:05;16.50;99.90
2955;DHT22;1487;51.470;6.938;2023-05-10T11:08:39;16.40;99.90
2955;DHT22;1487;51.470;6.938;2023-05-10T11:11:07;16.40;99.90
2955;DHT22;1487;51.470;6.938;2023-05-10T11:13:38;16.30;99.90
2955;DHT22;1487;51.470;6.938;2023-05-10T11:16:16;16.30;99.90
2955;DHT22;1487;51.470;6.938;2023-05-10T11:18:54;16.30;99.90
2955;DHT22;1487;51.470;6.938;2023-05-10T11:21:22;16.30;99.90
2955;DHT22;1487;51.470;6.938;2023-05-10T11:23:51;16.20;99.90
2955;DHT22;1487;51.470;6.938;2023-05-10T11:26:21;16.20;99.90
2955;DHT22;1487;51.470;6.938;2023-05-10T11:28:53;16.00;99.90
2955;DHT22;1487;51.470;6.938;2023-05-10T11:31:22;15.80;99.90
2955;DHT22;1487;51.470;6.938;2023-05-10T11:33:52;15.80;99.90
2955;DHT22;1487;51.470;6.938;2023-05-10T11:36:23;15.90;99.90
2955;DHT22;1487;51.470;6.938;2023-05-10T11:38:51;16.00;99.90
2955;DHT22;1487;51.470;6.938;2023-05-10T11:41:19;16.20;99.90
2955;DHT22;1487;51.470;6.938;2023-05-10T11:43:49;16.50;99.90
2955;DHT22;1487;51.470;6.938;2023-05-10T11:46:17;17.00;99.90
2955;DHT22;1487;51.470;6.938;2023-05-10T11:48:46;17.40;99.90
2955;DHT22;1487;51.470;6.938;2023-05-10T11:51:13;17.60;99.90
2955;DHT22;1487;51.470;6.938;2023-05-10T11:53:41;17.50;99.90
2955;DHT22;1487;51.470;6.938;2023-05-10T11:56:09;17.50;99.90
2955;DHT22;1487;51.470;6.938;2023-05-10T11:58:37;17.60;99.90
2955;DHT22;1487;51.470;6.938;2023-05-10T12:01:06;17.70;99.90
2955;DHT22;1487;51.470;6.938;2023-05-10T12:03:33;17.70;99.90
2955;DHT22;1487;51.470;6.938;2023-05-10T12:06:01;18.10;99.90
2955;DHT22;1487;51.470;6.938;2023-05-10T12:08:29;18.50;99.90
2955;DHT22;1487;51.470;6.938;2023-05-10T12:11:06;18.90;99.90
2955;DHT22;1487;51.470;6.938;2023-05-10T12:13:37;19.50;99.90
2955;DHT22;1487;51.470;6.938;2023-05-10T12:16:13;19.40;99.90
2955;DHT22;1487;51.470;6.938;2023-05-10T12:18:40;19.80;99.90
2955;DHT22;1487;51.470;6.938;2023-05-10T12:21:09;19.90;99.90
2955;DHT22;1487;51.470;6.938;2023-05-10T12:23:37;20.00;99.90
2955;DHT22;1487;51.470;6.938;2023-05-10T12:26:05;19.80;99.90
2955;DHT22;1487;51.470;6.938;2023-05-10T12:28:33;19.20;99.90
2955;DHT22;1487;51.470;6.938;2023-05-10T12:31:01;19.20;99.90
2955;DHT22;1487;51.470;6.938;2023-05-10T12:33:35;19.40;99.90
2955;DHT22;1487;51.470;6.938;2023-05-10T12:36:05;19.50;99.90
2955;DHT22;1487;51.470;6.938;2023-05-10T12:38:33;19.60;99.90
2955;DHT22;1487;51.470;6.938;2023-05-10T12:41:01;19.70;99.90
2955;DHT22;1487;51.470;6.938;2023-05-10T12:43:30;19.50;99.90
2955;DHT22;1487;51.470;6.938;2023-05-10T12:45:57;19.50;99.90
2955;DHT22;1487;51.470;6.938;2023-05-10T12:48:24;19.60;99.90
2955;DHT22;1487;51.470;6.938;2023-05-10T12:50:51;19.70;99.90
2955;DHT22;1487;51.470;6.938;2023-05-10T12:53:18;19.50;99.90
2955;DHT22;1487;51.470;6.938;2023-05-10T12:55:45;19.40;99.90
2955;DHT22;1487;51.470;6.938;2023-05-10T12:58:12;19.40;99.90
2955;DHT22;1487;51.470;6.938;2023-05-10T13:00:40;19.30;99.90
2955;DHT22;1487;51.470;6.938;2023-05-10T13:03:07;19.40;99.90
2955;DHT22;1487;51.470;6.938;2023-05-10T13:05:33;19.60;99.90
2955;DHT22;1487;51.470;6.938;2023-05-10T13:08:00;19.70;99.90
2955;DHT22;1487;51.470;6.938;2023-05-10T13:10:29;19.90;99.90
2955;DHT22;1487;51.470;6.938;2023-05-10T13:12:56;19.80;99.90
2955;DHT22;1487;51.470;6.938;2023-05-10T13:15:23;20.00;99.90
2955;DHT22;1487;51.470;6.938;2023-05-10T13:17:51;20.60;99.90
2955;DHT22;1487;51.470;6.938;2023-05-10T13:20:18;21.90;99.90
2955;DHT22;1487;51.470;6.938;2023-05-10T13:22:45;23.30;99.90
2955;DHT22;1487;51.470;6.938;2023-05-10T13:25:12;24.40;99.90
2955;DHT22;1487;51.470;6.938;2023-05-10T13:27:39;24.10;99.90
2955;DHT22;1487;51.470;6.938;2023-05-10T13:30:07;24.10;99.90
2955;DHT22;1487;51.470;6.938;2023-05-10T13:32:35;23.90;99.90
2955;DHT22;1487;51.470;6.938;2023-05-10T13:35:04;24.10;99.90
2955;DHT22;1487;51.470;6.938;2023-05-10T13:37:31;25.00;97.00
2955;DHT22;1487;51.470;6.938;2023-05-10T13:40:00;25.20;96.30
2955;DHT22;1487;51.470;6.938;2023-05-10T13:42:29;25.00;92.10
2955;DHT22;1487;51.470;6.938;2023-05-10T13:44:57;24.00;92.40
2955;DHT22;1487;51.470;6.938;2023-05-10T13:47:24;23.70;91.60
2955;DHT22;1487;51.470;6.938;2023-05-10T13:49:50;23.30;94.60
2955;DHT22;1487;51.470;6.938;2023-05-10T13:52:19;22.90;97.70
2955;DHT22;1487;51.470;6.938;2023-05-10T13:54:46;23.30;99.30
2955;DHT22;1487;51.470;6.938;2023-05-10T13:57:12;23.50;99.90
2955;DHT22;1487;51.470;6.938;2023-05-10T13:59:42;24.00;98.70
2955;DHT22;1487;51.470;6.938;2023-05-10T14:02:08;24.70;95.40
2955;DHT22;1487;51.470;6.938;2023-05-10T14:04:36;25.00;91.50
2955;DHT22;1487;51.470;6.938;2023-05-10T14:07:03;24.80;90.90
2955;DHT22;1487;51.470;6.938;2023-05-10T14:09:31;24.70;92.90
2955;DHT22;1487;51.470;6.938;2023-05-10T14:11:58;24.10;92.00
2955;DHT22;1487;51.470;6.938;2023-05-10T14:14:25;23.50;94.60
2955;DHT22;1487;51.470;6.938;2023-05-10T14:16:52;23.10;96.80
2955;DHT22;1487;51.470;6.938;2023-05-10T14:19:18;22.70;98.30
2955;DHT22;1487;51.470;6.938;2023-05-10T14:21:45;22.40;99.90
2955;DHT22;1487;51.470;6.938;2023-05-10T14:24:12;22.30;99.90
2955;DHT22;1487;51.470;6.938;2023-05-10T14:26:40;21.80;99.90
2955;DHT22;1487;51.470;6.938;2023-05-10T14:29:07;21.30;99.90
2955;DHT22;1487;51.470;6.938;2023-05-10T14:31:34;20.90;99.90
2955;DHT22;1487;51.470;6.938;2023-05-10T14:34:00;20.70;99.90
2955;DHT22;1487;51.470;6.938;2023-05-10T14:36:28;20.70;99.90
2955;DHT22;1487;51.470;6.938;2023-05-10T14:38:55;20.60;99.90
2955;DHT22;1487;51.470;6.938;2023-05-10T14:41:22;20.10;99.90
2955;DHT22;1487;51.470;6.938;2023-05-10T14:43:51;19.60;99.90
2955;DHT22;1487;51.470;6.938;2023-05-10T14:46:18;19.40;99.90
2955;DHT22;1487;51.470;6.938;2023-05-10T14:48:45;19.40;99.90
2955;DHT22;1487;51.470;6.938;2023-05-10T14:51:12;19.80;99.90
2955;DHT22;1487;51.470;6.938;2023-05-10T14:53:38;20.50;99.90
2955;DHT22;1487;51.470;6.938;2023-05-10T14:56:06;21.30;99.90
2955;DHT22;1487;51.470;6.938;2023-05-10T14:58:33;21.60;99.90
2955;DHT22;1487;51.470;6.938;2023-05-10T15:01:01;21.80;99.90
2955;DHT22;1487;51.470;6.938;2023-05-10T15:03:28;22.00;99.90
2955;DHT22;1487;51.470;6.938;2023-05-10T15:05:54;21.80;99.90
2955;DHT22;1487;51.470;6.938;2023-05-10T15:08:23;21.40;99.90
2955;DHT22;1487;51.470;6.938;2023-05-10T15:10:50;21.10;99.90
2955;DHT22;1487;51.470;6.938;2023-05-10T15:13:17;21.10;99.90
2955;DHT22;1487;51.470;6.938;2023-05-10T15:15:44;21.00;99.90
2955;DHT22;1487;51.470;6.938;2023-05-10T15:18:12;20.90;99.90
2955;DHT22;1487;51.470;6.938;2023-05-10T15:20:39;20.60;99.90
2955;DHT22;1487;51.470;6.938;2023-05-10T15:23:05;20.50;99.90
2955;DHT22;1487;51.470;6.938;2023-05-10T15:25:32;20.40;99.90
2955;DHT22;1487;51.470;6.938;2023-05-10T15:28:02;20.70;99.90
2955;DHT22;1487;51.470;6.938;2023-05-10T15:30:29;20.90;99.90
2955;DHT22;1487;51.470;6.938;2023-05-10T15:32:56;21.00;99.90
2955;DHT22;1487;51.470;6.938;2023-05-10T15:35:25;21.30;99.90
2955;DHT22;1487;51.470;6.938;2023-05-10T15:37:52;21.30;99.90
2955;DHT22;1487;51.470;6.938;2023-05-10T15:40:19;21.20;99.90
2955;DHT22;1487;51.470;6.938;2023-05-10T15:42:46;20.70;99.90
2955;DHT22;1487;51.470;6.938;2023-05-10T15:45:13;20.40;99.90
2955;DHT22;1487;51.470;6.938;2023-05-10T15:47:40;20.20;99.90
2955;DHT22;1487;51.470;6.938;2023-05-10T15:50:09;19.90;99.90
2955;DHT22;1487;51.470;6.938;2023-05-10T15:52:38;19.80;99.90
2955;DHT22;1487;51.470;6.938;2023-05-10T15:55:05;19.70;99.90
2955;DHT22;1487;51.470;6.938;2023-05-10T15:57:37;19.60;99.90
2955;DHT22;1487;51.470;6.938;2023-05-10T16:00:05;19.40;99.90
2955;DHT22;1487;51.470;6.938;2023-05-10T16:02:32;19.30;99.90
2955;DHT22;1487;51.470;6.938;2023-05-10T16:04:59;18.90;99.90
2955;DHT22;1487;51.470;6.938;2023-05-10T16:07:26;18.70;99.90
2955;DHT22;1487;51.470;6.938;2023-05-10T16:09:54;18.50;99.90
2955;DHT22;1487;51.470;6.938;2023-05-10T16:12:21;18.20;99.90